Time;durP1;ratioP1;P1;durP2;ratioP2;P2;SDS_P1;SDS_P2;PMS_P1;PMS_P2;Temp;Humidity;BMP_temperature;BMP_pressure;BME280_temperature;BME280_humidity;BME280_pressure;Samples;Min_cycle;Max_cycle;Signal;HPM_P1;HPM_P2
2023/08/17 00:01:01;;;;;;;4.22;1.67;;;;;;;;;;6267867;28;20407;-78
2023/08/17 00:04:03;;;;;;;4.90;2.20;;;;;;;;;;6263742;28;20041;-76
2023/08/17 00:07:05;;;;;;;2.38;1.70;;;;;;;;;;6265702;28;20467;-77
2023/08/17 00:10:07;;;;;;;3.50;1.73;;;;;;;;;;6240528;28;20056;-77
2023/08/17 00:13:09;;;;;;;2.92;1.95;;;;;;;;;;6264002;28;20087;-77
2023/08/17 00:16:11;;;;;;;3.45;1.92;;;;;;;;;;6249747;28;20064;-77
2023/08/17 00:19:12;;;;;;;3.30;1.90;;;;;;;;;;6268682;28;20047;-77
2023/08/17 00:22:15;;;;;;;5.20;2.17;;;;;;;;;;6274313;28;20064;-77
2023/08/17 00:25:17;;;;;;;2.08;1.83;;;;;;;;;;6247209;28;20069;-77
2023/08/17 00:28:19;;;;;;;4.73;1.80;;;;;;;;;;6267629;28;20059;-78
2023/08/17 00:31:20;;;;;;;6.25;1.92;;;;;;;;;;6263332;28;20507;-78
2023/08/17 00:34:22;;;;;;;4.60;2.30;;;;;;;;;;6267746;28;20108;-78
2023/08/17 00:37:24;;;;;;;3.20;2.20;;;;;;;;;;6265262;28;20056;-77
2023/08/17 00:40:26;;;;;;;3.75;2.10;;;;;;;;;;6297303;28;20529;-77
2023/08/17 00:43:28;;;;;;;3.40;2.20;;;;;;;;;;6285543;28;20055;-78
2023/08/17 00:46:30;;;;;;;3.63;1.95;;;;;;;;;;6265307;28;20056;-77
2023/08/17 00:49:32;;;;;;;5.57;2.87;;;;;;;;;;6246759;28;20045;-78
2023/08/17 00:52:34;;;;;;;3.55;2.50;;;;;;;;;;6266824;28;21928;-78
2023/08/17 00:55:36;;;;;;;3.78;2.92;;;;;;;;;;6270593;28;20048;-76
2023/08/17 00:58:37;;;;;;;5.60;2.05;;;;;;;;;;6297033;28;20040;-77
2023/08/17 01:01:42;;;;;;;3.42;2.20;;;;;;;;;;6288882;28;20060;-77
2023/08/17 01:04:46;;;;;;;4.03;2.72;;;;;;;;;;6288688;28;20045;-78
2023/08/17 01:07:48;;;;;;;6.65;2.85;;;;;;;;;;6262692;28;20045;-78
2023/08/17 01:11:01;;;;;;;4.40;3.25;;;;;;;;;;6262409;28;20495;-77
2023/08/17 01:14:31;;;;;;;4.47;3.13;;;;;;;;;;6269834;28;20045;-78
2023/08/17 01:17:41;;;;;;;4.82;3.00;;;;;;;;;;6268852;28;20076;-77
2023/08/17 01:20:46;;;;;;;5.82;3.08;;;;;;;;;;6278541;28;20044;-78
2023/08/17 01:23:49;;;;;;;5.35;3.53;;;;;;;;;;6272287;28;20059;-77
2023/08/17 01:26:51;;;;;;;5.88;3.50;;;;;;;;;;6278070;28;20434;-78
2023/08/17 01:29:54;;;;;;;5.40;3.47;;;;;;;;;;6265638;28;20108;-78
2023/08/17 01:33:08;;;;;;;5.40;3.63;;;;;;;;;;6249208;28;20045;-77
2023/08/17 01:36:29;;;;;;;6.00;3.65;;;;;;;;;;6280512;28;20049;-78
2023/08/17 01:39:37;;;;;;;4.93;3.40;;;;;;;;;;6277238;28;20044;-76
2023/08/17 01:42:40;;;;;;;5.20;3.72;;;;;;;;;;6251506;28;20041;-76
2023/08/17 01:45:42;;;;;;;5.05;3.35;;;;;;;;;;6265307;28;20111;-76
2023/08/17 01:48:44;;;;;;;4.38;3.40;;;;;;;;;;6251041;28;20052;-77
2023/08/17 01:51:46;;;;;;;7.40;3.90;;;;;;;;;;6291495;28;20397;-78
2023/08/17 01:54:47;;;;;;;6.40;3.70;;;;;;;;;;6289587;28;20040;-77
2023/08/17 01:57:49;;;;;;;6.78;3.63;;;;;;;;;;6283924;28;20040;-78
2023/08/17 02:00:51;;;;;;;7.73;3.87;;;;;;;;;;6255214;28;20114;-78
2023/08/17 02:03:53;;;;;;;7.55;3.90;;;;;;;;;;6292519;28;20044;-77
2023/08/17 02:06:55;;;;;;;6.28;4.63;;;;;;;;;;6290045;28;20044;-77
2023/08/17 02:09:56;;;;;;;7.07;4.07;;;;;;;;;;6308436;28;20045;-75
2023/08/17 02:13:00;;;;;;;8.80;4.72;;;;;;;;;;6276985;28;20044;-78
2023/08/17 02:16:18;;;;;;;9.73;4.95;;;;;;;;;;6291652;28;20040;-77
2023/08/17 02:19:19;;;;;;;8.23;4.75;;;;;;;;;;6277301;28;20071;-78
2023/08/17 02:22:23;;;;;;;9.80;4.63;;;;;;;;;;6260944;28;20270;-79
2023/08/17 02:25:24;;;;;;;7.20;4.55;;;;;;;;;;6289140;28;20052;-78
2023/08/17 02:28:26;;;;;;;8.13;4.90;;;;;;;;;;6283768;28;20048;-77
2023/08/17 02:31:27;;;;;;;6.05;4.50;;;;;;;;;;6247282;28;20411;-76
2023/08/17 02:34:31;;;;;;;7.15;4.53;;;;;;;;;;6264807;28;20049;-78
2023/08/17 02:37:33;;;;;;;7.40;4.65;;;;;;;;;;6266839;28;20049;-78
2023/08/17 02:40:34;;;;;;;7.60;4.53;;;;;;;;;;6262351;28;20048;-77
2023/08/17 02:43:36;;;;;;;8.23;4.07;;;;;;;;;;6262039;28;20052;-77
2023/08/17 02:46:38;;;;;;;4.75;3.70;;;;;;;;;;6253406;28;20037;-77
2023/08/17 02:49:40;;;;;;;5.32;3.25;;;;;;;;;;6270786;28;20044;-78
2023/08/17 02:52:42;;;;;;;4.88;3.40;;;;;;;;;;6269955;28;20041;-77
2023/08/17 02:55:44;;;;;;;6.10;3.15;;;;;;;;;;6269630;28;20056;-78
2023/08/17 02:58:46;;;;;;;4.13;2.70;;;;;;;;;;6280222;28;20047;-76
2023/08/17 03:01:47;;;;;;;5.00;2.95;;;;;;;;;;6269468;28;20049;-78
2023/08/17 03:04:49;;;;;;;4.47;3.13;;;;;;;;;;6301228;28;20075;-77
2023/08/17 03:07:51;;;;;;;4.75;3.10;;;;;;;;;;6255092;28;20085;-76
2023/08/17 03:10:53;;;;;;;5.60;3.20;;;;;;;;;;6282808;28;20044;-77
2023/08/17 03:13:59;;;;;;;5.10;2.60;;;;;;;;;;6269180;28;20499;-78
2023/08/17 03:17:01;;;;;;;3.78;2.90;;;;;;;;;;6283832;28;20041;-77
2023/08/17 03:20:06;;;;;;;4.70;2.63;;;;;;;;;;6265626;28;20580;-77
2023/08/17 03:23:08;;;;;;;4.65;2.88;;;;;;;;;;6266713;28;20049;-77
2023/08/17 03:26:10;;;;;;;5.15;3.22;;;;;;;;;;6314469;28;20045;-77
2023/08/17 03:29:12;;;;;;;4.57;3.05;;;;;;;;;;6284145;28;20292;-77
2023/08/17 03:32:14;;;;;;;4.57;3.63;;;;;;;;;;6283378;28;20067;-78
2023/08/17 03:35:16;;;;;;;4.43;3.40;;;;;;;;;;6282678;28;20130;-77
2023/08/17 03:38:17;;;;;;;5.85;3.33;;;;;;;;;;6282166;28;20044;-76
2023/08/17 03:41:23;;;;;;;6.18;3.80;;;;;;;;;;6300226;28;20060;-77
2023/08/17 03:44:25;;;;;;;4.45;3.35;;;;;;;;;;6270596;28;20131;-78
2023/08/17 03:47:26;;;;;;;6.10;3.30;;;;;;;;;;6254949;28;20053;-77
2023/08/17 03:50:29;;;;;;;6.60;4.45;;;;;;;;;;6266981;28;20049;-76
2023/08/17 03:53:32;;;;;;;7.72;3.92;;;;;;;;;;6264257;28;20037;-78
2023/08/17 03:56:34;;;;;;;6.53;4.43;;;;;;;;;;6270851;28;20045;-76
2023/08/17 03:59:36;;;;;;;6.80;4.88;;;;;;;;;;6277212;28;20041;-76
2023/08/17 04:02:37;;;;;;;6.53;4.32;;;;;;;;;;6297723;28;20039;-76
2023/08/17 04:05:39;;;;;;;7.97;4.90;;;;;;;;;;6270627;28;20041;-78
2023/08/17 04:08:41;;;;;;;12.50;4.85;;;;;;;;;;6268761;28;20055;-78
2023/08/17 04:11:44;;;;;;;7.35;4.63;;;;;;;;;;6268414;28;20041;-77
2023/08/17 04:14:46;;;;;;;6.38;4.43;;;;;;;;;;6265928;28;20048;-77
2023/08/17 04:17:48;;;;;;;6.43;3.85;;;;;;;;;;6272268;28;20407;-77
2023/08/17 04:20:50;;;;;;;8.55;3.75;;;;;;;;;;6269081;28;20056;-77
2023/08/17 04:23:55;;;;;;;6.43;3.83;;;;;;;;;;6269676;28;20049;-78
2023/08/17 04:26:57;;;;;;;7.68;4.35;;;;;;;;;;6293821;28;20059;-76
2023/08/17 04:30:00;;;;;;;;;;;;;;;;;;6295938;28;20053;-76
2023/08/17 04:33:07;;;;;;;7.35;4.07;;;;;;;;;;6260738;28;20023;-79
2023/08/17 04:36:09;;;;;;;;;;;;;;;;;;6269462;28;20037;-76
2023/08/17 04:39:12;;;;;;;13.47;5.90;;;;;;;;;;6265402;28;19921;-76
2023/08/17 04:42:13;;;;;;;9.55;5.15;;;;;;;;;;6277398;28;20059;-78
2023/08/17 04:45:15;;;;;;;8.38;4.25;;;;;;;;;;6261736;28;20060;-78
2023/08/17 04:48:19;;;;;;;10.05;5.78;;;;;;;;;;6252674;28;20147;-78
2023/08/17 04:51:22;;;;;;;5.55;3.05;;;;;;;;;;6251124;28;20056;-76
2023/08/17 04:54:24;;;;;;;7.97;3.85;;;;;;;;;;6269341;28;20114;-78
2023/08/17 04:57:27;;;;;;;4.85;3.13;;;;;;;;;;6270453;28;20047;-77
2023/08/17 05:00:29;;;;;;;5.03;3.08;;;;;;;;;;6235604;28;20056;-77
2023/08/17 05:03:31;;;;;;;5.70;3.17;;;;;;;;;;6239902;28;20423;-79
2023/08/17 05:06:38;;;;;;;7.18;3.60;;;;;;;;;;6265451;28;20096;-77
2023/08/17 05:09:40;;;;;;;8.88;4.38;;;;;;;;;;6270426;28;20049;-77
2023/08/17 05:12:42;;;;;;;7.00;4.28;;;;;;;;;;6251843;28;20049;-77
2023/08/17 05:15:44;;;;;;;7.68;4.43;;;;;;;;;;6265147;28;20049;-78
2023/08/17 05:18:46;;;;;;;7.13;4.13;;;;;;;;;;6249984;28;20056;-77
2023/08/17 05:21:51;;;;;;;7.93;4.32;;;;;;;;;;6264126;28;20048;-77
2023/08/17 05:24:54;;;;;;;8.80;4.45;;;;;;;;;;6268959;28;20465;-78
2023/08/17 05:27:56;;;;;;;6.75;4.68;;;;;;;;;;6287603;28;20053;-78
2023/08/17 05:31:06;;;;;;;9.47;4.67;;;;;;;;;;6269447;28;20048;-78
2023/08/17 05:34:11;;;;;;;;;;;;;;;;;;6275721;28;20105;-78
2023/08/17 05:37:15;;;;;;;11.00;4.00;;;;;;;;;;6269657;28;19951;-77
2023/08/17 05:40:17;;;;;;;;;;;;;;;;;;6266850;28;20426;-76
2023/08/17 05:43:20;;;;;;;7.80;4.50;;;;;;;;;;6278924;28;19935;-77
2023/08/17 05:46:22;;;;;;;7.95;4.72;;;;;;;;;;6281877;28;20101;-78
2023/08/17 05:49:25;;;;;;;9.53;5.30;;;;;;;;;;6298321;28;20042;-78
2023/08/17 05:52:31;;;;;;;10.30;5.22;;;;;;;;;;6266136;28;20102;-77
2023/08/17 05:55:33;;;;;;;9.10;5.38;;;;;;;;;;6271888;28;20072;-78
2023/08/17 05:58:36;;;;;;;7.88;4.53;;;;;;;;;;6272634;28;20053;-78
2023/08/17 06:01:39;;;;;;;6.72;4.10;;;;;;;;;;6270019;28;20052;-78
2023/08/17 06:04:41;;;;;;;6.72;4.60;;;;;;;;;;6263910;28;20049;-78
2023/08/17 06:07:42;;;;;;;6.70;4.68;;;;;;;;;;6262518;28;20477;-78
2023/08/17 06:10:45;;;;;;;;;;;;;;;;;;6260675;28;20060;-79
2023/08/17 06:13:47;;;;;;;6.63;4.10;;;;;;;;;;6266189;28;19925;-79
2023/08/17 06:16:48;;;;;;;9.52;4.80;;;;;;;;;;6262904;28;20048;-79
2023/08/17 06:19:50;;;;;;;9.88;4.55;;;;;;;;;;6262480;28;20037;-79
2023/08/17 06:22:52;;;;;;;7.25;4.68;;;;;;;;;;6267458;28;20063;-78
2023/08/17 06:26:00;;;;;;;8.90;4.28;;;;;;;;;;6280480;28;20053;-80
2023/08/17 06:29:02;;;;;;;6.40;4.13;;;;;;;;;;6263765;28;20056;-79
2023/08/17 06:32:05;;;;;;;7.50;4.50;;;;;;;;;;6262863;28;20122;-78
2023/08/17 06:35:07;;;;;;;6.57;4.30;;;;;;;;;;6288855;28;20517;-78
2023/08/17 06:38:09;;;;;;;5.20;3.80;;;;;;;;;;6304924;28;20048;-79
2023/08/17 06:41:11;;;;;;;5.90;4.50;;;;;;;;;;6300040;28;20051;-79
2023/08/17 06:44:12;;;;;;;5.85;4.10;;;;;;;;;;6274361;28;20048;-79
2023/08/17 06:47:14;;;;;;;5.88;3.90;;;;;;;;;;6288643;28;20602;-78
2023/08/17 06:50:16;;;;;;;6.03;4.10;;;;;;;;;;6270888;28;20056;-78
2023/08/17 06:53:17;;;;;;;8.45;3.60;;;;;;;;;;6273952;28;20078;-80
2023/08/17 06:56:19;;;;;;;6.05;3.85;;;;;;;;;;6274250;28;20060;-79
2023/08/17 06:59:22;;;;;;;7.18;4.50;;;;;;;;;;6255901;28;20041;-77
2023/08/17 07:02:23;;;;;;;;;;;;;;;;;;6275184;28;20040;-79
2023/08/17 07:05:26;;;;;;;7.97;3.63;;;;;;;;;;6283290;28;20023;-78
2023/08/17 07:08:28;;;;;;;5.43;3.93;;;;;;;;;;6297335;28;20274;-79
2023/08/17 07:11:30;;;;;;;5.38;3.80;;;;;;;;;;6283303;28;20438;-78
2023/08/17 07:14:33;;;;;;;7.47;4.00;;;;;;;;;;6301543;28;20052;-78
2023/08/17 07:17:36;;;;;;;4.53;3.75;;;;;;;;;;6279245;28;20040;-78
2023/08/17 07:20:38;;;;;;;;;;;;;;;;;;6304450;28;20040;-77
2023/08/17 07:23:43;;;;;;;5.60;3.40;;;;;;;;;;6303872;28;19994;-77
2023/08/17 07:26:45;;;;;;;5.90;3.50;;;;;;;;;;6301107;28;20044;-78
2023/08/17 07:29:47;;;;;;;3.85;3.20;;;;;;;;;;6291736;28;20093;-79
2023/08/17 07:32:49;;;;;;;;;;;;;;;;;;6280302;28;20048;-78
2023/08/17 07:35:53;;;;;;;5.25;3.28;;;;;;;;;;6294222;28;19920;-79
2023/08/17 07:38:54;;;;;;;4.63;3.47;;;;;;;;;;6287985;28;20139;-78
2023/08/17 07:41:56;;;;;;;3.60;3.15;;;;;;;;;;6301602;28;20044;-79
2023/08/17 07:44:58;;;;;;;5.65;2.55;;;;;;;;;;6303773;28;20048;-79
2023/08/17 07:47:59;;;;;;;4.15;3.00;;;;;;;;;;6291554;28;20510;-78
2023/08/17 07:51:01;;;;;;;3.67;3.03;;;;;;;;;;6291542;28;20063;-80
2023/08/17 07:54:03;;;;;;;3.50;3.00;;;;;;;;;;6293053;28;20040;-77
2023/08/17 07:57:05;;;;;;;3.80;2.60;;;;;;;;;;6285700;28;20707;-79
2023/08/17 08:00:07;;;;;;;4.05;3.15;;;;;;;;;;6293263;28;20048;-80
2023/08/17 08:03:09;;;;;;;4.15;3.10;;;;;;;;;;6294217;28;20098;-78
2023/08/17 08:06:11;;;;;;;3.70;2.77;;;;;;;;;;6306616;28;20697;-78
2023/08/17 08:09:12;;;;;;;5.60;3.28;;;;;;;;;;6269959;28;20052;-79
2023/08/17 08:12:14;;;;;;;7.00;3.22;;;;;;;;;;6279651;28;20056;-80
2023/08/17 08:15:16;;;;;;;5.78;3.05;;;;;;;;;;6279920;28;20071;-79
2023/08/17 08:18:17;;;;;;;6.63;3.95;;;;;;;;;;6268493;28;20098;-77
2023/08/17 08:21:19;;;;;;;5.63;3.15;;;;;;;;;;6285909;28;20445;-78
2023/08/17 08:24:21;;;;;;;4.43;3.55;;;;;;;;;;6274800;28;20060;-79
2023/08/17 08:27:38;;;;;;;5.13;3.65;;;;;;;;;;6267154;28;20043;-78
2023/08/17 08:30:40;;;;;;;4.43;3.05;;;;;;;;;;6285675;28;20044;-78
2023/08/17 08:33:43;;;;;;;4.43;3.55;;;;;;;;;;6286863;28;20040;-79
2023/08/17 08:36:45;;;;;;;3.88;3.58;;;;;;;;;;6285799;28;20037;-77
2023/08/17 08:39:51;;;;;;;6.05;3.42;;;;;;;;;;6276814;28;20056;-79
2023/08/17 08:42:52;;;;;;;3.47;3.17;;;;;;;;;;6286781;28;20195;-79
2023/08/17 08:45:55;;;;;;;3.58;3.28;;;;;;;;;;6286065;28;20106;-78
2023/08/17 08:48:57;;;;;;;3.55;3.00;;;;;;;;;;6285418;28;20090;-78
2023/08/17 08:52:00;;;;;;;4.25;3.28;;;;;;;;;;6286170;28;20060;-80
2023/08/17 08:55:17;;;;;;;3.13;2.83;;;;;;;;;;6287668;28;20040;-80
2023/08/17 08:58:19;;;;;;;3.22;2.88;;;;;;;;;;6283167;28;20394;-80
2023/08/17 09:01:21;;;;;;;5.60;3.15;;;;;;;;;;6285169;28;20041;-80
2023/08/17 09:04:24;;;;;;;4.82;3.10;;;;;;;;;;6262046;28;20040;-81
2023/08/17 09:07:29;;;;;;;3.53;2.80;;;;;;;;;;6282424;28;20048;-80
2023/08/17 09:10:31;;;;;;;3.38;2.95;;;;;;;;;;6281312;28;20043;-79
2023/08/17 09:13:38;;;;;;;3.35;2.85;;;;;;;;;;6288606;28;20064;-78
2023/08/17 09:16:40;;;;;;;3.35;2.92;;;;;;;;;;6288163;28;20044;-79
2023/08/17 09:19:47;;;;;;;3.60;3.28;;;;;;;;;;6285180;28;20067;-80
2023/08/17 09:22:49;;;;;;;3.17;2.88;;;;;;;;;;6267033;28;20047;-78
2023/08/17 09:25:57;;;;;;;4.00;3.10;;;;;;;;;;6291577;28;20053;-80
2023/08/17 09:29:01;;;;;;;5.00;2.75;;;;;;;;;;6288551;28;20052;-80
2023/08/17 09:32:06;;;;;;;3.10;2.80;;;;;;;;;;6262280;28;20047;-80
2023/08/17 09:35:09;;;;;;;3.90;2.65;;;;;;;;;;6268080;28;20041;-78
2023/08/17 09:38:10;;;;;;;4.07;2.60;;;;;;;;;;6270580;28;20204;-77
2023/08/17 09:41:13;;;;;;;2.90;2.67;;;;;;;;;;6266057;28;20071;-79
2023/08/17 09:44:16;;;;;;;3.47;2.55;;;;;;;;;;6299820;28;20045;-79
2023/08/17 09:47:19;;;;;;;3.38;2.97;;;;;;;;;;6267622;28;20083;-79
2023/08/17 09:50:23;;;;;;;;;;;;;;;;;;6265723;28;20526;-76
2023/08/17 09:53:25;;;;;;;3.72;2.80;;;;;;;;;;6262714;28;19987;-76
2023/08/17 09:56:28;;;;;;;3.47;3.00;;;;;;;;;;6268954;28;20274;-79
2023/08/17 09:59:29;;;;;;;4.05;2.90;;;;;;;;;;6264360;28;20040;-77
2023/08/17 10:02:32;;;;;;;3.10;2.77;;;;;;;;;;6267726;28;20040;-77
2023/08/17 10:05:39;;;;;;;3.95;2.95;;;;;;;;;;6265114;28;20478;-78
2023/08/17 10:08:47;;;;;;;4.10;2.78;;;;;;;;;;6266480;28;20056;-78
2023/08/17 10:11:52;;;;;;;3.33;3.03;;;;;;;;;;6262540;28;20041;-80
2023/08/17 10:15:03;;;;;;;3.15;2.85;;;;;;;;;;6260645;28;20056;-78
2023/08/17 10:18:14;;;;;;;18.35;8.23;;;;;;;;;;6242376;28;20044;-78
2023/08/17 10:21:27;;;;;;;4.10;3.45;;;;;;;;;;6259536;28;20048;-80
2023/08/17 10:24:33;;;;;;;6.13;3.95;;;;;;;;;;6257007;28;20045;-81
2023/08/17 10:27:35;;;;;;;2.90;2.70;;;;;;;;;;6235833;28;20045;-77
2023/08/17 10:30:37;;;;;;;2.90;2.70;;;;;;;;;;6235624;28;20048;-76
2023/08/17 10:33:41;;;;;;;3.22;2.92;;;;;;;;;;6240497;28;20071;-77
2023/08/17 10:36:45;;;;;;;3.30;3.00;;;;;;;;;;6255762;28;20045;-76
2023/08/17 10:39:48;;;;;;;3.45;2.70;;;;;;;;;;6255903;28;20077;-76
2023/08/17 10:42:54;;;;;;;3.40;2.92;;;;;;;;;;6268334;28;20253;-76
2023/08/17 10:46:14;;;;;;;5.03;3.00;;;;;;;;;;6267770;28;20060;-76
2023/08/17 10:49:26;;;;;;;3.83;2.90;;;;;;;;;;6253348;28;20036;-76
2023/08/17 10:52:36;;;;;;;4.18;3.50;;;;;;;;;;6254971;28;20122;-79
2023/08/17 10:55:43;;;;;;;5.45;2.88;;;;;;;;;;6258416;28;20068;-79
2023/08/17 10:58:45;;;;;;;4.55;3.53;;;;;;;;;;6280968;28;20036;-79
2023/08/17 11:01:51;;;;;;;5.60;3.17;;;;;;;;;;6272694;28;20147;-80
2023/08/17 11:04:53;;;;;;;4.13;2.88;;;;;;;;;;6293642;28;20139;-81
2023/08/17 11:07:55;;;;;;;3.50;2.97;;;;;;;;;;6257819;28;20726;-80
2023/08/17 11:11:10;;;;;;;3.20;2.90;;;;;;;;;;6298725;28;20044;-80
2023/08/17 11:14:12;;;;;;;4.85;2.80;;;;;;;;;;6282767;28;20056;-82
2023/08/17 11:17:14;;;;;;;3.40;3.10;;;;;;;;;;6282280;28;20053;-80
2023/08/17 11:20:15;;;;;;;4.83;3.10;;;;;;;;;;6297738;28;20036;-82
2023/08/17 11:23:18;;;;;;;3.27;3.07;;;;;;;;;;6309201;28;20051;-80
2023/08/17 11:26:19;;;;;;;4.50;2.80;;;;;;;;;;6301259;28;20040;-79
2023/08/17 11:29:23;;;;;;;3.38;3.08;;;;;;;;;;6297885;28;20132;-79
2023/08/17 11:32:25;;;;;;;3.40;2.90;;;;;;;;;;6295531;28;20108;-78
2023/08/17 11:35:27;;;;;;;3.78;3.20;;;;;;;;;;6288977;28;20155;-79
2023/08/17 11:38:40;;;;;;;3.90;3.60;;;;;;;;;;6284608;28;20044;-81
2023/08/17 11:41:43;;;;;;;4.50;3.17;;;;;;;;;;6283568;28;20450;-82
2023/08/17 11:44:44;;;;;;;3.55;3.13;;;;;;;;;;6287241;28;20054;-82
2023/08/17 11:47:47;;;;;;;2.97;2.72;;;;;;;;;;6281486;28;20498;-80
2023/08/17 11:50:49;;;;;;;;;;;;;;;;;;6274797;28;20056;-79
2023/08/17 11:53:50;;;;;;;2.80;2.60;;;;;;;;;;6255644;28;19931;-79
2023/08/17 11:56:52;;;;;;;3.53;3.00;;;;;;;;;;6256374;28;20041;-79
2023/08/17 11:59:55;;;;;;;3.80;3.43;;;;;;;;;;6244804;28;20068;-79
2023/08/17 12:02:56;;;;;;;3.60;3.30;;;;;;;;;;6270166;28;20463;-79
2023/08/17 12:05:58;;;;;;;3.13;2.83;;;;;;;;;;6240025;28;20056;-80
2023/08/17 12:09:00;;;;;;;3.20;2.90;;;;;;;;;;6241355;28;20052;-79
2023/08/17 12:12:01;;;;;;;3.57;3.27;;;;;;;;;;6270259;28;20735;-78
2023/08/17 12:15:04;;;;;;;3.25;2.83;;;;;;;;;;6240786;28;20447;-79
2023/08/17 12:18:06;;;;;;;3.00;2.80;;;;;;;;;;6256586;28;20061;-78
2023/08/17 12:25:55;;;;;;;3.20;2.90;;;;;;;;;;6251311;28;20045;-81
2023/08/17 12:28:57;;;;;;;;;;;;;;;;;;6261197;28;20181;-79
2023/08/17 12:32:01;;;;;;;3.20;2.92;;;;;;;;;;6239329;28;19964;-81
2023/08/17 12:35:03;;;;;;;3.22;2.80;;;;;;;;;;6263022;28;20116;-80
2023/08/17 12:38:05;;;;;;;2.80;2.60;;;;;;;;;;6278975;28;20130;-80
2023/08/17 12:41:06;;;;;;;2.78;2.58;;;;;;;;;;6278890;28;20159;-78
2023/08/17 12:44:13;;;;;;;3.95;2.70;;;;;;;;;;6278270;28;20056;-78
2023/08/17 12:47:18;;;;;;;3.97;2.83;;;;;;;;;;6279215;28;20468;-78
2023/08/17 12:50:20;;;;;;;3.50;3.17;;;;;;;;;;6277210;28;20048;-78
2023/08/17 12:53:22;;;;;;;2.50;2.30;;;;;;;;;;6272997;28;20503;-80
2023/08/17 12:56:24;;;;;;;;;;;;;;;;;;6279646;28;20059;-80
2023/08/17 12:59:26;;;;;;;3.03;2.83;;;;;;;;;;6282052;28;19921;-78
2023/08/17 13:02:27;;;;;;;;;;;;;;;;;;6277636;28;20041;-77
2023/08/17 13:05:29;;;;;;;3.70;2.90;;;;;;;;;;6280786;28;19992;-78
2023/08/17 13:08:31;;;;;;;3.05;2.78;;;;;;;;;;6275071;28;20043;-78
2023/08/17 13:11:33;;;;;;;3.22;2.70;;;;;;;;;;6285021;28;20046;-79
2023/08/17 13:14:34;;;;;;;3.20;2.90;;;;;;;;;;6276966;28;20492;-77
2023/08/17 13:17:36;;;;;;;4.05;2.92;;;;;;;;;;6285771;28;20065;-78
2023/08/17 13:20:40;;;;;;;2.65;2.45;;;;;;;;;;6287239;28;20120;-78
2023/08/17 13:23:41;;;;;;;2.58;2.38;;;;;;;;;;6267760;28;20056;-78
2023/08/17 13:26:43;;;;;;;2.88;2.05;;;;;;;;;;6245530;28;20098;-77
2023/08/17 13:29:47;;;;;;;2.10;1.98;;;;;;;;;;6243104;28;20488;-77
2023/08/17 13:32:48;;;;;;;;;;;;;;;;;;6257325;28;20048;-78
2023/08/17 13:35:51;;;;;;;2.27;2.07;;;;;;;;;;6247575;28;19935;-77
2023/08/17 13:38:53;;;;;;;2.60;2.40;;;;;;;;;;6261455;28;20450;-79
2023/08/17 13:41:54;;;;;;;;;;;;;;;;;;6271623;28;20060;-80
2023/08/17 13:44:56;;;;;;;2.55;2.25;;;;;;;;;;6268077;28;20310;-80
2023/08/17 13:47:57;;;;;;;2.50;2.22;;;;;;;;;;6266229;28;20051;-81
2023/08/17 13:50:59;;;;;;;2.25;2.15;;;;;;;;;;6250170;28;20047;-81
2023/08/17 13:54:01;;;;;;;2.17;1.98;;;;;;;;;;6243303;28;20045;-80
2023/08/17 13:57:03;;;;;;;2.55;2.13;;;;;;;;;;6261638;28;20053;-80
2023/08/17 14:00:06;;;;;;;2.45;2.00;;;;;;;;;;6265461;28;20075;-81
2023/08/17 14:03:09;;;;;;;2.00;1.90;;;;;;;;;;6261601;28;20517;-81
2023/08/17 14:06:10;;;;;;;3.13;2.00;;;;;;;;;;6258254;28;20433;-78
2023/08/17 14:09:12;;;;;;;3.13;1.90;;;;;;;;;;6269923;28;20049;-81
2023/08/17 14:12:14;;;;;;;1.90;1.80;;;;;;;;;;6264291;28;20045;-79
2023/08/17 14:15:15;;;;;;;2.00;1.88;;;;;;;;;;6265307;28;20049;-80
2023/08/17 14:18:17;;;;;;;2.40;1.88;;;;;;;;;;6233664;28;20125;-79
2023/08/17 14:21:19;;;;;;;2.83;2.00;;;;;;;;;;6260697;28;20086;-79
2023/08/17 14:24:21;;;;;;;1.55;1.45;;;;;;;;;;6249937;28;20045;-78
2023/08/17 14:27:22;;;;;;;1.77;1.67;;;;;;;;;;6260335;28;20419;-79
2023/08/17 14:30:24;;;;;;;1.90;1.80;;;;;;;;;;6260413;28;20052;-80
2023/08/17 14:33:26;;;;;;;2.05;1.60;;;;;;;;;;6260782;28;20064;-80
2023/08/17 14:36:28;;;;;;;1.77;1.67;;;;;;;;;;6258098;28;20061;-80
2023/08/17 14:39:29;;;;;;;3.03;1.88;;;;;;;;;;6263677;28;20415;-81
2023/08/17 14:42:31;;;;;;;3.10;1.60;;;;;;;;;;6260471;28;20119;-78
2023/08/17 14:45:33;;;;;;;1.55;1.45;;;;;;;;;;6258106;28;20052;-80
2023/08/17 14:48:35;;;;;;;2.40;1.83;;;;;;;;;;6271551;28;20045;-79
2023/08/17 14:51:38;;;;;;;1.70;1.60;;;;;;;;;;6244603;28;20045;-76
2023/08/17 14:54:40;;;;;;;1.95;1.70;;;;;;;;;;6258747;28;20049;-78
2023/08/17 14:57:44;;;;;;;2.30;1.80;;;;;;;;;;6243919;28;20681;-77
2023/08/17 15:00:45;;;;;;;1.90;1.80;;;;;;;;;;6258609;28;20525;-76
2023/08/17 15:03:47;;;;;;;2.10;1.90;;;;;;;;;;6253488;28;20080;-77
2023/08/17 15:06:49;;;;;;;2.13;1.90;;;;;;;;;;6255452;28;20044;-79
2023/08/17 15:09:50;;;;;;;2.05;1.63;;;;;;;;;;6237900;28;20052;-80
2023/08/17 15:12:52;;;;;;;2.03;1.92;;;;;;;;;;6247065;28;20086;-80
2023/08/17 15:15:55;;;;;;;1.95;1.80;;;;;;;;;;6236861;28;20055;-77
2023/08/17 15:18:57;;;;;;;3.53;2.00;;;;;;;;;;6262481;28;20142;-79
2023/08/17 15:21:59;;;;;;;2.28;2.00;;;;;;;;;;6262871;28;20538;-76
2023/08/17 15:25:00;;;;;;;1.98;1.88;;;;;;;;;;6264043;28;20055;-79
2023/08/17 15:28:02;;;;;;;3.45;2.15;;;;;;;;;;6264462;28;20052;-79
2023/08/17 15:31:05;;;;;;;2.65;2.22;;;;;;;;;;6261886;28;20453;-78
2023/08/17 15:34:07;;;;;;;2.28;2.00;;;;;;;;;;6266409;28;20678;-80
2023/08/17 15:37:09;;;;;;;4.18;2.22;;;;;;;;;;6267370;28;20044;-81
2023/08/17 15:40:11;;;;;;;;;;;;;;;;;;6266739;28;20048;-80
2023/08/17 15:43:13;;;;;;;2.08;1.98;;;;;;;;;;6267403;28;19921;-77
2023/08/17 15:46:14;;;;;;;2.42;2.20;;;;;;;;;;6263173;28;20045;-79
2023/08/17 15:49:16;;;;;;;2.25;2.08;;;;;;;;;;6256036;28;20045;-79
2023/08/17 15:52:18;;;;;;;2.35;2.17;;;;;;;;;;6262546;28;20049;-78
2023/08/17 15:55:19;;;;;;;2.15;1.95;;;;;;;;;;6263200;28;21771;-77
2023/08/17 15:58:21;;;;;;;2.28;2.10;;;;;;;;;;6244484;28;20037;-81
2023/08/17 16:01:23;;;;;;;3.90;2.10;;;;;;;;;;6261651;28;20060;-82
2023/08/17 16:04:24;;;;;;;2.00;1.90;;;;;;;;;;6264892;28;20451;-79
2023/08/17 16:07:26;;;;;;;3.10;2.22;;;;;;;;;;6266042;28;20517;-80
2023/08/17 16:10:30;;;;;;;2.58;1.92;;;;;;;;;;6278136;28;20513;-79
2023/08/17 16:13:37;;;;;;;4.07;1.90;;;;;;;;;;6263354;28;20045;-78
2023/08/17 16:16:38;;;;;;;2.30;2.10;;;;;;;;;;6258690;28;20045;-78
2023/08/17 16:19:40;;;;;;;3.63;2.28;;;;;;;;;;6258818;28;20040;-77
2023/08/17 16:22:42;;;;;;;3.05;2.25;;;;;;;;;;6257802;28;20073;-77
2023/08/17 16:25:44;;;;;;;2.53;2.03;;;;;;;;;;6253144;28;20040;-77
2023/08/17 16:28:46;;;;;;;2.53;2.33;;;;;;;;;;6256317;28;20051;-77
2023/08/17 16:32:00;;;;;;;2.75;2.40;;;;;;;;;;6260599;28;20044;-77
2023/08/17 16:35:09;;;;;;;2.30;2.10;;;;;;;;;;6259866;28;20086;-77
2023/08/17 16:38:11;;;;;;;2.08;1.92;;;;;;;;;;6254924;28;20071;-78
2023/08/17 16:41:13;;;;;;;2.83;2.58;;;;;;;;;;6256304;28;20063;-78
2023/08/17 16:44:14;;;;;;;3.90;3.05;;;;;;;;;;6255267;28;20036;-77
2023/08/17 16:47:16;;;;;;;2.63;2.40;;;;;;;;;;6276080;28;20067;-78
2023/08/17 16:50:20;;;;;;;2.80;2.60;;;;;;;;;;6278038;28;20044;-77
2023/08/17 16:53:22;;;;;;;2.65;2.45;;;;;;;;;;6277178;28;20064;-76
2023/08/17 16:56:23;;;;;;;2.33;2.13;;;;;;;;;;6280903;28;20468;-76
2023/08/17 16:59:25;;;;;;;2.88;2.67;;;;;;;;;;6280992;28;20071;-77
2023/08/17 17:02:28;;;;;;;2.85;2.65;;;;;;;;;;6281667;28;20570;-78
2023/08/17 17:05:30;;;;;;;2.70;2.50;;;;;;;;;;6296906;28;20448;-78
2023/08/17 17:08:34;;;;;;;4.38;2.95;;;;;;;;;;6281242;28;20059;-77
2023/08/17 17:11:36;;;;;;;3.70;2.70;;;;;;;;;;6280158;28;20051;-78
2023/08/17 17:14:39;;;;;;;3.60;2.72;;;;;;;;;;6284185;28;20041;-79
2023/08/17 17:17:45;;;;;;;3.10;2.80;;;;;;;;;;6278880;28;20177;-77
2023/08/17 17:20:47;;;;;;;4.72;2.80;;;;;;;;;;6278419;28;20049;-77
2023/08/17 17:23:49;;;;;;;3.42;3.10;;;;;;;;;;6279380;28;20032;-77
2023/08/17 17:26:51;;;;;;;3.00;2.50;;;;;;;;;;6278652;28;20391;-79
2023/08/17 17:29:53;;;;;;;3.20;2.90;;;;;;;;;;6272896;28;20053;-76
2023/08/17 17:32:55;;;;;;;3.20;2.73;;;;;;;;;;6294571;28;20079;-77
2023/08/17 17:35:57;;;;;;;3.22;2.65;;;;;;;;;;6280800;28;20056;-78
2023/08/17 17:38:58;;;;;;;3.28;2.90;;;;;;;;;;6280030;28;20087;-78
2023/08/17 17:42:00;;;;;;;5.37;2.87;;;;;;;;;;6283143;28;20056;-78
2023/08/17 17:45:02;;;;;;;3.00;2.70;;;;;;;;;;6280414;28;20069;-77
2023/08/17 17:48:04;;;;;;;2.97;2.77;;;;;;;;;;6260278;28;20139;-75
2023/08/17 17:51:06;;;;;;;;;;;;;;;;;;6252045;28;20459;-77
2023/08/17 17:54:08;;;;;;;2.92;2.70;;;;;;;;;;6274627;28;20350;-76
2023/08/17 17:57:09;;;;;;;3.10;2.90;;;;;;;;;;6270147;28;20037;-77
2023/08/17 18:00:12;;;;;;;2.90;2.70;;;;;;;;;;6279071;28;20044;-77
2023/08/17 18:03:15;;;;;;;3.20;2.70;;;;;;;;;;6294870;28;20435;-79
2023/08/17 18:06:18;;;;;;;4.97;2.85;;;;;;;;;;6290196;28;20047;-78
2023/08/17 18:09:21;;;;;;;3.40;2.97;;;;;;;;;;6301611;28;20071;-81
2023/08/17 18:12:26;;;;;;;3.00;2.70;;;;;;;;;;6289925;28;20612;-79
2023/08/17 18:15:31;;;;;;;3.47;2.92;;;;;;;;;;6287119;28;20495;-78
2023/08/17 18:18:36;;;;;;;3.75;3.00;;;;;;;;;;6289893;28;20166;-80
2023/08/17 18:21:38;;;;;;;4.93;2.88;;;;;;;;;;6288842;28;20048;-80
2023/08/17 18:24:40;;;;;;;4.63;3.40;;;;;;;;;;6290951;28;20083;-80
2023/08/17 18:27:42;;;;;;;3.83;3.42;;;;;;;;;;6288203;28;20072;-79